sensor_id;sensor_type;location;lat;lon;timestamp;P1;durP1;ratioP1;P2;durP2;ratioP2
9218;SDS011;4644;48.858;9.184;2023-04-02T00:00:04;0.90;;;0.80;;
9218;SDS011;4644;48.858;9.184;2023-04-02T00:02:46;0.70;;;0.60;;
9218;SDS011;4644;48.858;9.184;2023-04-02T00:05:25;0.60;;;0.60;;
9218;SDS011;4644;48.858;9.184;2023-04-02T00:11:06;0.50;;;0.50;;
9218;SDS011;4644;48.858;9.184;2023-04-02T00:13:35;0.60;;;0.60;;
9218;SDS011;4644;48.858;9.184;2023-04-02T00:16:08;0.67;;;0.67;;
9218;SDS011;4644;48.858;9.184;2023-04-02T00:18:39;0.63;;;0.63;;
9218;SDS011;4644;48.858;9.184;2023-04-02T00:21:10;0.60;;;0.60;;
9218;SDS011;4644;48.858;9.184;2023-04-02T00:23:41;1.20;;;0.70;;
9218;SDS011;4644;48.858;9.184;2023-04-02T00:28:55;0.70;;;0.70;;
9218;SDS011;4644;48.858;9.184;2023-04-02T00:31:24;0.70;;;0.70;;
9218;SDS011;4644;48.858;9.184;2023-04-02T00:33:57;0.77;;;0.70;;
9218;SDS011;4644;48.858;9.184;2023-04-02T00:36:28;0.97;;;0.80;;
9218;SDS011;4644;48.858;9.184;2023-04-02T00:38:58;0.70;;;0.70;;
9218;SDS011;4644;48.858;9.184;2023-04-02T00:41:27;0.53;;;0.53;;
9218;SDS011;4644;48.858;9.184;2023-04-02T00:44:00;0.73;;;0.60;;
9218;SDS011;4644;48.858;9.184;2023-04-02T00:46:30;0.70;;;0.70;;
9218;SDS011;4644;48.858;9.184;2023-04-02T00:49:00;0.70;;;0.70;;
9218;SDS011;4644;48.858;9.184;2023-04-02T00:51:34;1.60;;;0.80;;
9218;SDS011;4644;48.858;9.184;2023-04-02T00:54:04;0.60;;;0.60;;
9218;SDS011;4644;48.858;9.184;2023-04-02T00:56:40;0.60;;;0.60;;
9218;SDS011;4644;48.858;9.184;2023-04-02T00:59:15;0.60;;;0.60;;
9218;SDS011;4644;48.858;9.184;2023-04-02T01:01:58;1.53;;;0.70;;
9218;SDS011;4644;48.858;9.184;2023-04-02T01:04:46;0.80;;;0.80;;
9218;SDS011;4644;48.858;9.184;2023-04-02T01:07:22;0.80;;;0.80;;
9218;SDS011;4644;48.858;9.184;2023-04-02T01:10:11;0.90;;;0.90;;
9218;SDS011;4644;48.858;9.184;2023-04-02T01:12:57;1.13;;;0.70;;
9218;SDS011;4644;48.858;9.184;2023-04-02T01:15:35;0.60;;;0.60;;
9218;SDS011;4644;48.858;9.184;2023-04-02T01:18:19;0.80;;;0.60;;
9218;SDS011;4644;48.858;9.184;2023-04-02T01:23:49;0.63;;;0.63;;
9218;SDS011;4644;48.858;9.184;2023-04-02T01:26:26;0.60;;;0.60;;
9218;SDS011;4644;48.858;9.184;2023-04-02T01:29:07;0.60;;;0.60;;
9218;SDS011;4644;48.858;9.184;2023-04-02T01:31:38;0.60;;;0.60;;
9218;SDS011;4644;48.858;9.184;2023-04-02T01:34:08;1.13;;;0.70;;
9218;SDS011;4644;48.858;9.184;2023-04-02T01:36:38;0.60;;;0.60;;
9218;SDS011;4644;48.858;9.184;2023-04-02T01:39:12;0.70;;;0.70;;
9218;SDS011;4644;48.858;9.184;2023-04-02T01:41:51;0.57;;;0.57;;
9218;SDS011;4644;48.858;9.184;2023-04-02T01:44:27;0.73;;;0.70;;
9218;SDS011;4644;48.858;9.184;2023-04-02T01:47:00;0.60;;;0.60;;
9218;SDS011;4644;48.858;9.184;2023-04-02T01:49:30;0.70;;;0.60;;
9218;SDS011;4644;48.858;9.184;2023-04-02T01:51:57;1.40;;;0.80;;
9218;SDS011;4644;48.858;9.184;2023-04-02T01:54:25;1.07;;;1.00;;
9218;SDS011;4644;48.858;9.184;2023-04-02T01:56:53;3.70;;;0.80;;
9218;SDS011;4644;48.858;9.184;2023-04-02T01:59:22;0.73;;;0.70;;
9218;SDS011;4644;48.858;9.184;2023-04-02T02:01:55;0.73;;;0.73;;
9218;SDS011;4644;48.858;9.184;2023-04-02T02:04:26;0.60;;;0.60;;
9218;SDS011;4644;48.858;9.184;2023-04-02T02:06:55;0.77;;;0.77;;
9218;SDS011;4644;48.858;9.184;2023-04-02T02:09:25;0.53;;;0.53;;
9218;SDS011;4644;48.858;9.184;2023-04-02T02:11:55;0.60;;;0.60;;
9218;SDS011;4644;48.858;9.184;2023-04-02T02:14:23;0.90;;;0.90;;
9218;SDS011;4644;48.858;9.184;2023-04-02T02:16:53;0.70;;;0.70;;
9218;SDS011;4644;48.858;9.184;2023-04-02T02:19:25;0.70;;;0.70;;
9218;SDS011;4644;48.858;9.184;2023-04-02T02:21:55;1.17;;;0.60;;
9218;SDS011;4644;48.858;9.184;2023-04-02T02:24:25;0.60;;;0.60;;
9218;SDS011;4644;48.858;9.184;2023-04-02T02:26:59;0.57;;;0.57;;
9218;SDS011;4644;48.858;9.184;2023-04-02T02:29:34;1.77;;;0.70;;
9218;SDS011;4644;48.858;9.184;2023-04-02T02:32:06;0.40;;;0.40;;
9218;SDS011;4644;48.858;9.184;2023-04-02T02:34:36;0.63;;;0.63;;
9218;SDS011;4644;48.858;9.184;2023-04-02T02:37:09;1.17;;;0.60;;
9218;SDS011;4644;48.858;9.184;2023-04-02T02:39:41;0.73;;;0.73;;
9218;SDS011;4644;48.858;9.184;2023-04-02T02:42:11;0.77;;;0.70;;
9218;SDS011;4644;48.858;9.184;2023-04-02T02:44:45;0.60;;;0.60;;
9218;SDS011;4644;48.858;9.184;2023-04-02T02:47:17;1.20;;;1.10;;
9218;SDS011;4644;48.858;9.184;2023-04-02T02:49:49;1.17;;;0.87;;
9218;SDS011;4644;48.858;9.184;2023-04-02T02:52:19;1.03;;;0.90;;
9218;SDS011;4644;48.858;9.184;2023-04-02T02:54:51;0.93;;;0.93;;
9218;SDS011;4644;48.858;9.184;2023-04-02T02:57:21;1.93;;;0.83;;
9218;SDS011;4644;48.858;9.184;2023-04-02T02:59:51;1.70;;;0.70;;
9218;SDS011;4644;48.858;9.184;2023-04-02T03:02:21;0.57;;;0.57;;
9218;SDS011;4644;48.858;9.184;2023-04-02T03:04:49;0.77;;;0.60;;
9218;SDS011;4644;48.858;9.184;2023-04-02T03:07:18;0.60;;;0.60;;
9218;SDS011;4644;48.858;9.184;2023-04-02T03:09:51;0.50;;;0.50;;
9218;SDS011;4644;48.858;9.184;2023-04-02T03:12:28;0.50;;;0.50;;
9218;SDS011;4644;48.858;9.184;2023-04-02T03:15:10;0.60;;;0.60;;
9218;SDS011;4644;48.858;9.184;2023-04-02T03:17:46;0.60;;;0.60;;
9218;SDS011;4644;48.858;9.184;2023-04-02T03:20:16;0.50;;;0.50;;
9218;SDS011;4644;48.858;9.184;2023-04-02T03:22:52;0.60;;;0.60;;
9218;SDS011;4644;48.858;9.184;2023-04-02T03:25:27;0.63;;;0.63;;
9218;SDS011;4644;48.858;9.184;2023-04-02T03:28:02;1.07;;;0.70;;
9218;SDS011;4644;48.858;9.184;2023-04-02T03:30:35;1.00;;;0.60;;
9218;SDS011;4644;48.858;9.184;2023-04-02T03:33:10;0.50;;;0.50;;
9218;SDS011;4644;48.858;9.184;2023-04-02T03:35:42;1.37;;;0.80;;
9218;SDS011;4644;48.858;9.184;2023-04-02T03:38:12;0.53;;;0.53;;
9218;SDS011;4644;48.858;9.184;2023-04-02T03:40:44;0.50;;;0.50;;
9218;SDS011;4644;48.858;9.184;2023-04-02T03:43:21;0.87;;;0.70;;
9218;SDS011;4644;48.858;9.184;2023-04-02T03:45:52;0.70;;;0.70;;
9218;SDS011;4644;48.858;9.184;2023-04-02T03:48:25;0.60;;;0.60;;
9218;SDS011;4644;48.858;9.184;2023-04-02T03:50:57;0.50;;;0.50;;
9218;SDS011;4644;48.858;9.184;2023-04-02T03:53:28;0.50;;;0.50;;
9218;SDS011;4644;48.858;9.184;2023-04-02T03:55:56;0.50;;;0.50;;
9218;SDS011;4644;48.858;9.184;2023-04-02T03:58:26;0.70;;;0.70;;
9218;SDS011;4644;48.858;9.184;2023-04-02T04:01:02;0.70;;;0.70;;
9218;SDS011;4644;48.858;9.184;2023-04-02T04:03:37;0.93;;;0.80;;
9218;SDS011;4644;48.858;9.184;2023-04-02T04:06:08;0.87;;;0.87;;
9218;SDS011;4644;48.858;9.184;2023-04-02T04:08:40;0.80;;;0.80;;
9218;SDS011;4644;48.858;9.184;2023-04-02T04:11:12;0.77;;;0.77;;
9218;SDS011;4644;48.858;9.184;2023-04-02T04:13:43;0.67;;;0.67;;
9218;SDS011;4644;48.858;9.184;2023-04-02T04:16:15;1.07;;;1.00;;
9218;SDS011;4644;48.858;9.184;2023-04-02T04:18:50;2.10;;;0.80;;
9218;SDS011;4644;48.858;9.184;2023-04-02T04:21:27;0.70;;;0.70;;
9218;SDS011;4644;48.858;9.184;2023-04-02T04:23:56;0.53;;;0.50;;
9218;SDS011;4644;48.858;9.184;2023-04-02T04:26:31;0.57;;;0.57;;
9218;SDS011;4644;48.858;9.184;2023-04-02T04:29:05;2.20;;;0.90;;
9218;SDS011;4644;48.858;9.184;2023-04-02T04:31:40;0.67;;;0.67;;
9218;SDS011;4644;48.858;9.184;2023-04-02T04:34:16;0.80;;;0.70;;
9218;SDS011;4644;48.858;9.184;2023-04-02T04:36:47;1.87;;;0.60;;
9218;SDS011;4644;48.858;9.184;2023-04-02T04:39:23;2.43;;;0.60;;
9218;SDS011;4644;48.858;9.184;2023-04-02T04:41:55;1.53;;;0.40;;
9218;SDS011;4644;48.858;9.184;2023-04-02T04:44:27;0.50;;;0.50;;
9218;SDS011;4644;48.858;9.184;2023-04-02T04:47:06;0.50;;;0.50;;
9218;SDS011;4644;48.858;9.184;2023-04-02T04:49:39;0.60;;;0.60;;
9218;SDS011;4644;48.858;9.184;2023-04-02T04:52:12;0.60;;;0.60;;
9218;SDS011;4644;48.858;9.184;2023-04-02T04:54:44;0.50;;;0.50;;
9218;SDS011;4644;48.858;9.184;2023-04-02T04:57:17;0.50;;;0.50;;
9218;SDS011;4644;48.858;9.184;2023-04-02T04:59:50;1.23;;;0.70;;
9218;SDS011;4644;48.858;9.184;2023-04-02T05:02:22;1.23;;;0.50;;
9218;SDS011;4644;48.858;9.184;2023-04-02T05:04:56;0.60;;;0.60;;
9218;SDS011;4644;48.858;9.184;2023-04-02T05:07:24;0.60;;;0.60;;
9218;SDS011;4644;48.858;9.184;2023-04-02T05:09:54;1.20;;;0.50;;
9218;SDS011;4644;48.858;9.184;2023-04-02T05:12:27;0.60;;;0.60;;
9218;SDS011;4644;48.858;9.184;2023-04-02T05:15:00;1.67;;;0.80;;
9218;SDS011;4644;48.858;9.184;2023-04-02T05:17:32;1.17;;;0.90;;
9218;SDS011;4644;48.858;9.184;2023-04-02T05:20:05;0.70;;;0.70;;
9218;SDS011;4644;48.858;9.184;2023-04-02T05:22:43;0.60;;;0.60;;
9218;SDS011;4644;48.858;9.184;2023-04-02T05:25:15;0.60;;;0.60;;
9218;SDS011;4644;48.858;9.184;2023-04-02T05:27:48;0.70;;;0.70;;
9218;SDS011;4644;48.858;9.184;2023-04-02T05:30:39;0.97;;;0.80;;
9218;SDS011;4644;48.858;9.184;2023-04-02T05:33:16;0.63;;;0.63;;
9218;SDS011;4644;48.858;9.184;2023-04-02T05:35:49;0.50;;;0.50;;
9218;SDS011;4644;48.858;9.184;2023-04-02T05:38:21;0.83;;;0.73;;
9218;SDS011;4644;48.858;9.184;2023-04-02T05:40:53;1.20;;;0.80;;
9218;SDS011;4644;48.858;9.184;2023-04-02T05:43:25;0.60;;;0.60;;
9218;SDS011;4644;48.858;9.184;2023-04-02T05:45:56;3.17;;;0.63;;
9218;SDS011;4644;48.858;9.184;2023-04-02T05:48:29;1.50;;;0.70;;
9218;SDS011;4644;48.858;9.184;2023-04-02T05:51:02;0.77;;;0.73;;
9218;SDS011;4644;48.858;9.184;2023-04-02T05:53:33;0.60;;;0.60;;
9218;SDS011;4644;48.858;9.184;2023-04-02T05:56:04;0.60;;;0.57;;
9218;SDS011;4644;48.858;9.184;2023-04-02T05:58:41;0.50;;;0.50;;
9218;SDS011;4644;48.858;9.184;2023-04-02T06:01:14;0.60;;;0.60;;
9218;SDS011;4644;48.858;9.184;2023-04-02T06:03:49;0.70;;;0.70;;
9218;SDS011;4644;48.858;9.184;2023-04-02T06:06:24;0.60;;;0.60;;
9218;SDS011;4644;48.858;9.184;2023-04-02T06:09:08;0.83;;;0.63;;
9218;SDS011;4644;48.858;9.184;2023-04-02T06:11:39;0.97;;;0.60;;
9218;SDS011;4644;48.858;9.184;2023-04-02T06:14:11;0.90;;;0.60;;
9218;SDS011;4644;48.858;9.184;2023-04-02T06:16:39;0.90;;;0.90;;
9218;SDS011;4644;48.858;9.184;2023-04-02T06:19:09;0.60;;;0.60;;
9218;SDS011;4644;48.858;9.184;2023-04-02T06:21:43;1.23;;;0.80;;
9218;SDS011;4644;48.858;9.184;2023-04-02T06:24:12;0.40;;;0.40;;
9218;SDS011;4644;48.858;9.184;2023-04-02T06:26:42;0.80;;;0.60;;
9218;SDS011;4644;48.858;9.184;2023-04-02T06:29:12;0.73;;;0.70;;
9218;SDS011;4644;48.858;9.184;2023-04-02T06:31:46;0.60;;;0.60;;
9218;SDS011;4644;48.858;9.184;2023-04-02T06:34:17;0.60;;;0.60;;
9218;SDS011;4644;48.858;9.184;2023-04-02T06:36:48;0.97;;;0.60;;
9218;SDS011;4644;48.858;9.184;2023-04-02T06:39:17;0.60;;;0.60;;
9218;SDS011;4644;48.858;9.184;2023-04-02T06:41:50;0.80;;;0.80;;
9218;SDS011;4644;48.858;9.184;2023-04-02T06:44:23;0.50;;;0.50;;
9218;SDS011;4644;48.858;9.184;2023-04-02T06:46:53;0.90;;;0.70;;
9218;SDS011;4644;48.858;9.184;2023-04-02T06:49:24;0.60;;;0.60;;
9218;SDS011;4644;48.858;9.184;2023-04-02T06:51:57;0.60;;;0.60;;
9218;SDS011;4644;48.858;9.184;2023-04-02T06:54:27;1.40;;;0.60;;
9218;SDS011;4644;48.858;9.184;2023-04-02T06:56:54;0.70;;;0.70;;
9218;SDS011;4644;48.858;9.184;2023-04-02T06:59:21;2.00;;;0.50;;
9218;SDS011;4644;48.858;9.184;2023-04-02T07:01:50;0.70;;;0.70;;
9218;SDS011;4644;48.858;9.184;2023-04-02T07:04:19;1.63;;;0.80;;
9218;SDS011;4644;48.858;9.184;2023-04-02T07:06:47;0.80;;;0.70;;
9218;SDS011;4644;48.858;9.184;2023-04-02T07:09:16;1.30;;;0.80;;
9218;SDS011;4644;48.858;9.184;2023-04-02T07:11:43;0.70;;;0.70;;
9218;SDS011;4644;48.858;9.184;2023-04-02T07:14:11;1.07;;;0.87;;
9218;SDS011;4644;48.858;9.184;2023-04-02T07:16:38;0.53;;;0.53;;
9218;SDS011;4644;48.858;9.184;2023-04-02T07:19:08;0.70;;;0.70;;
9218;SDS011;4644;48.858;9.184;2023-04-02T07:21:43;0.87;;;0.87;;
9218;SDS011;4644;48.858;9.184;2023-04-02T07:24:10;1.87;;;0.70;;
9218;SDS011;4644;48.858;9.184;2023-04-02T07:26:39;0.63;;;0.60;;
9218;SDS011;4644;48.858;9.184;2023-04-02T07:29:06;0.73;;;0.73;;
9218;SDS011;4644;48.858;9.184;2023-04-02T07:31:36;0.70;;;0.70;;
9218;SDS011;4644;48.858;9.184;2023-04-02T07:34:05;0.70;;;0.70;;
9218;SDS011;4644;48.858;9.184;2023-04-02T07:36:33;0.60;;;0.60;;
9218;SDS011;4644;48.858;9.184;2023-04-02T07:39:00;0.60;;;0.60;;
9218;SDS011;4644;48.858;9.184;2023-04-02T07:41:27;0.70;;;0.67;;
9218;SDS011;4644;48.858;9.184;2023-04-02T07:43:55;1.10;;;0.80;;
9218;SDS011;4644;48.858;9.184;2023-04-02T07:46:22;1.53;;;0.70;;
9218;SDS011;4644;48.858;9.184;2023-04-02T07:48:50;1.27;;;1.07;;
9218;SDS011;4644;48.858;9.184;2023-04-02T07:51:18;0.70;;;0.70;;
9218;SDS011;4644;48.858;9.184;2023-04-02T07:53:46;0.70;;;0.70;;
9218;SDS011;4644;48.858;9.184;2023-04-02T07:56:15;1.20;;;0.77;;
9218;SDS011;4644;48.858;9.184;2023-04-02T07:58:44;1.07;;;0.70;;
9218;SDS011;4644;48.858;9.184;2023-04-02T08:01:17;1.07;;;0.80;;
9218;SDS011;4644;48.858;9.184;2023-04-02T08:03:48;0.80;;;0.80;;
9218;SDS011;4644;48.858;9.184;2023-04-02T08:06:15;1.07;;;0.80;;
9218;SDS011;4644;48.858;9.184;2023-04-02T08:08:42;0.80;;;0.80;;
9218;SDS011;4644;48.858;9.184;2023-04-02T08:11:13;0.80;;;0.80;;
9218;SDS011;4644;48.858;9.184;2023-04-02T08:13:40;0.90;;;0.90;;
9218;SDS011;4644;48.858;9.184;2023-04-02T08:16:07;0.80;;;0.80;;
9218;SDS011;4644;48.858;9.184;2023-04-02T08:18:37;0.70;;;0.70;;
9218;SDS011;4644;48.858;9.184;2023-04-02T08:21:04;0.70;;;0.70;;
9218;SDS011;4644;48.858;9.184;2023-04-02T08:23:33;0.70;;;0.70;;
9218;SDS011;4644;48.858;9.184;2023-04-02T08:26:01;0.70;;;0.70;;
9218;SDS011;4644;48.858;9.184;2023-04-02T08:28:28;1.63;;;0.90;;
9218;SDS011;4644;48.858;9.184;2023-04-02T08:30:55;0.63;;;0.63;;
9218;SDS011;4644;48.858;9.184;2023-04-02T08:33:22;1.80;;;0.87;;
9218;SDS011;4644;48.858;9.184;2023-04-02T08:35:51;0.77;;;0.77;;
9218;SDS011;4644;48.858;9.184;2023-04-02T08:38:19;1.27;;;0.90;;
9218;SDS011;4644;48.858;9.184;2023-04-02T08:40:48;1.07;;;0.97;;
9218;SDS011;4644;48.858;9.184;2023-04-02T08:46:20;0.80;;;0.80;;
9218;SDS011;4644;48.858;9.184;2023-04-02T08:48:52;0.80;;;0.80;;
9218;SDS011;4644;48.858;9.184;2023-04-02T08:51:24;0.80;;;0.80;;
9218;SDS011;4644;48.858;9.184;2023-04-02T08:53:54;1.07;;;0.90;;
9218;SDS011;4644;48.858;9.184;2023-04-02T08:56:26;1.37;;;0.80;;
9218;SDS011;4644;48.858;9.184;2023-04-02T08:59:00;0.83;;;0.83;;
9218;SDS011;4644;48.858;9.184;2023-04-02T09:01:35;0.97;;;0.87;;
9218;SDS011;4644;48.858;9.184;2023-04-02T09:04:12;0.70;;;0.70;;
9218;SDS011;4644;48.858;9.184;2023-04-02T09:06:42;0.70;;;0.70;;
9218;SDS011;4644;48.858;9.184;2023-04-02T09:09:10;0.90;;;0.90;;
9218;SDS011;4644;48.858;9.184;2023-04-02T09:11:40;0.70;;;0.70;;
9218;SDS011;4644;48.858;9.184;2023-04-02T09:14:17;0.80;;;0.80;;
9218;SDS011;4644;48.858;9.184;2023-04-02T09:16:49;0.83;;;0.70;;
9218;SDS011;4644;48.858;9.184;2023-04-02T09:19:19;0.87;;;0.80;;
9218;SDS011;4644;48.858;9.184;2023-04-02T09:21:56;1.53;;;0.90;;
9218;SDS011;4644;48.858;9.184;2023-04-02T09:24:30;0.70;;;0.70;;
9218;SDS011;4644;48.858;9.184;2023-04-02T09:26:58;0.90;;;0.90;;
9218;SDS011;4644;48.858;9.184;2023-04-02T09:29:29;1.40;;;0.90;;
9218;SDS011;4644;48.858;9.184;2023-04-02T09:32:07;1.00;;;1.00;;
9218;SDS011;4644;48.858;9.184;2023-04-02T09:34:47;2.00;;;0.90;;
9218;SDS011;4644;48.858;9.184;2023-04-02T09:37:16;1.93;;;1.00;;
9218;SDS011;4644;48.858;9.184;2023-04-02T09:39:45;1.20;;;0.90;;
9218;SDS011;4644;48.858;9.184;2023-04-02T09:42:28;1.60;;;0.70;;
9218;SDS011;4644;48.858;9.184;2023-04-02T09:45:13;0.60;;;0.60;;
9218;SDS011;4644;48.858;9.184;2023-04-02T09:47:44;0.67;;;0.67;;
9218;SDS011;4644;48.858;9.184;2023-04-02T09:52:57;0.70;;;0.70;;
9218;SDS011;4644;48.858;9.184;2023-04-02T09:55:24;0.50;;;0.50;;
9218;SDS011;4644;48.858;9.184;2023-04-02T10:00:48;0.60;;;0.60;;
9218;SDS011;4644;48.858;9.184;2023-04-02T10:03:18;0.73;;;0.60;;
9218;SDS011;4644;48.858;9.184;2023-04-02T10:06:02;0.57;;;0.57;;
9218;SDS011;4644;48.858;9.184;2023-04-02T10:08:32;0.50;;;0.50;;
9218;SDS011;4644;48.858;9.184;2023-04-02T10:11:00;0.77;;;0.50;;
9218;SDS011;4644;48.858;9.184;2023-04-02T10:13:29;0.57;;;0.57;;
9218;SDS011;4644;48.858;9.184;2023-04-02T10:16:05;0.40;;;0.40;;
9218;SDS011;4644;48.858;9.184;2023-04-02T10:18:40;0.77;;;0.60;;
9218;SDS011;4644;48.858;9.184;2023-04-02T10:21:12;0.60;;;0.60;;
9218;SDS011;4644;48.858;9.184;2023-04-02T10:23:43;0.77;;;0.50;;
9218;SDS011;4644;48.858;9.184;2023-04-02T10:26:17;0.50;;;0.50;;
9218;SDS011;4644;48.858;9.184;2023-04-02T10:29:08;0.60;;;0.60;;
9218;SDS011;4644;48.858;9.184;2023-04-02T10:31:48;0.50;;;0.50;;
9218;SDS011;4644;48.858;9.184;2023-04-02T10:34:26;0.57;;;0.57;;
9218;SDS011;4644;48.858;9.184;2023-04-02T10:37:01;0.47;;;0.47;;
9218;SDS011;4644;48.858;9.184;2023-04-02T10:39:40;0.50;;;0.50;;
9218;SDS011;4644;48.858;9.184;2023-04-02T10:42:13;0.50;;;0.50;;
9218;SDS011;4644;48.858;9.184;2023-04-02T10:44:48;0.60;;;0.60;;
9218;SDS011;4644;48.858;9.184;2023-04-02T10:47:22;0.50;;;0.50;;
9218;SDS011;4644;48.858;9.184;2023-04-02T10:49:59;2.00;;;0.57;;
9218;SDS011;4644;48.858;9.184;2023-04-02T10:52:39;0.50;;;0.50;;
9218;SDS011;4644;48.858;9.184;2023-04-02T10:55:15;1.03;;;0.67;;
9218;SDS011;4644;48.858;9.184;2023-04-02T10:57:45;0.77;;;0.77;;
9218;SDS011;4644;48.858;9.184;2023-04-02T11:00:13;0.70;;;0.60;;
9218;SDS011;4644;48.858;9.184;2023-04-02T11:02:47;0.90;;;0.60;;
9218;SDS011;4644;48.858;9.184;2023-04-02T11:05:21;0.60;;;0.60;;
9218;SDS011;4644;48.858;9.184;2023-04-02T11:07:56;0.60;;;0.60;;
9218;SDS011;4644;48.858;9.184;2023-04-02T11:10:33;1.30;;;1.20;;
9218;SDS011;4644;48.858;9.184;2023-04-02T11:13:06;0.70;;;0.70;;
9218;SDS011;4644;48.858;9.184;2023-04-02T11:15:38;0.60;;;0.60;;
9218;SDS011;4644;48.858;9.184;2023-04-02T11:18:10;0.70;;;0.70;;
9218;SDS011;4644;48.858;9.184;2023-04-02T11:20:58;0.60;;;0.60;;
9218;SDS011;4644;48.858;9.184;2023-04-02T11:26:39;0.73;;;0.73;;
9218;SDS011;4644;48.858;9.184;2023-04-02T11:29:17;0.70;;;0.70;;
9218;SDS011;4644;48.858;9.184;2023-04-02T11:31:50;0.50;;;0.50;;
9218;SDS011;4644;48.858;9.184;2023-04-02T11:38:02;0.60;;;0.60;;
9218;SDS011;4644;48.858;9.184;2023-04-02T11:41:10;0.70;;;0.70;;
9218;SDS011;4644;48.858;9.184;2023-04-02T11:43:51;0.63;;;0.60;;
9218;SDS011;4644;48.858;9.184;2023-04-02T11:52:02;0.60;;;0.60;;
9218;SDS011;4644;48.858;9.184;2023-04-02T11:54:32;0.70;;;0.70;;
9218;SDS011;4644;48.858;9.184;2023-04-02T11:57:06;0.60;;;0.60;;
9218;SDS011;4644;48.858;9.184;2023-04-02T11:59:53;0.60;;;0.60;;
9218;SDS011;4644;48.858;9.184;2023-04-02T12:02:33;0.70;;;0.70;;
9218;SDS011;4644;48.858;9.184;2023-04-02T12:05:13;0.67;;;0.67;;
9218;SDS011;4644;48.858;9.184;2023-04-02T12:10:50;0.50;;;0.50;;
9218;SDS011;4644;48.858;9.184;2023-04-02T12:13:21;0.40;;;0.40;;
9218;SDS011;4644;48.858;9.184;2023-04-02T12:16:18;0.50;;;0.50;;
9218;SDS011;4644;48.858;9.184;2023-04-02T12:18:47;0.87;;;0.50;;
9218;SDS011;4644;48.858;9.184;2023-04-02T12:21:18;0.63;;;0.60;;
9218;SDS011;4644;48.858;9.184;2023-04-02T12:26:31;1.23;;;0.83;;
9218;SDS011;4644;48.858;9.184;2023-04-02T12:29:18;1.10;;;1.00;;
9218;SDS011;4644;48.858;9.184;2023-04-02T12:31:50;1.10;;;1.00;;
9218;SDS011;4644;48.858;9.184;2023-04-02T12:34:21;1.03;;;1.03;;
9218;SDS011;4644;48.858;9.184;2023-04-02T12:36:51;1.60;;;0.97;;
9218;SDS011;4644;48.858;9.184;2023-04-02T12:39:26;1.10;;;1.00;;
9218;SDS011;4644;48.858;9.184;2023-04-02T12:41:54;0.90;;;0.90;;
9218;SDS011;4644;48.858;9.184;2023-04-02T12:44:23;1.00;;;1.00;;
9218;SDS011;4644;48.858;9.184;2023-04-02T12:46:54;1.13;;;0.90;;
9218;SDS011;4644;48.858;9.184;2023-04-02T12:49:24;0.97;;;0.87;;
9218;SDS011;4644;48.858;9.184;2023-04-02T12:51:58;0.80;;;0.80;;
9218;SDS011;4644;48.858;9.184;2023-04-02T12:54:28;0.97;;;0.97;;
9218;SDS011;4644;48.858;9.184;2023-04-02T12:57:20;0.80;;;0.77;;
9218;SDS011;4644;48.858;9.184;2023-04-02T13:00:03;1.13;;;1.13;;
9218;SDS011;4644;48.858;9.184;2023-04-02T13:03:14;1.10;;;1.10;;
9218;SDS011;4644;48.858;9.184;2023-04-02T13:05:46;1.10;;;1.00;;
9218;SDS011;4644;48.858;9.184;2023-04-02T13:08:17;1.10;;;1.10;;
9218;SDS011;4644;48.858;9.184;2023-04-02T13:10:45;2.17;;;1.10;;
9218;SDS011;4644;48.858;9.184;2023-04-02T13:13:20;1.20;;;1.10;;
9218;SDS011;4644;48.858;9.184;2023-04-02T13:16:03;2.20;;;1.27;;
9218;SDS011;4644;48.858;9.184;2023-04-02T13:18:37;1.70;;;1.47;;
9218;SDS011;4644;48.858;9.184;2023-04-02T13:21:06;1.10;;;1.07;;
9218;SDS011;4644;48.858;9.184;2023-04-02T13:23:48;1.30;;;1.30;;
9218;SDS011;4644;48.858;9.184;2023-04-02T13:26:16;1.10;;;1.10;;
9218;SDS011;4644;48.858;9.184;2023-04-02T13:28:54;1.00;;;1.00;;
9218;SDS011;4644;48.858;9.184;2023-04-02T13:31:23;1.50;;;1.40;;
9218;SDS011;4644;48.858;9.184;2023-04-02T13:33:51;1.10;;;1.10;;
9218;SDS011;4644;48.858;9.184;2023-04-02T13:36:18;1.03;;;1.00;;
9218;SDS011;4644;48.858;9.184;2023-04-02T13:38:45;1.20;;;1.20;;
9218;SDS011;4644;48.858;9.184;2023-04-02T13:41:16;1.70;;;1.60;;
9218;SDS011;4644;48.858;9.184;2023-04-02T13:43:47;1.37;;;1.30;;
9218;SDS011;4644;48.858;9.184;2023-04-02T13:46:17;1.47;;;1.40;;
9218;SDS011;4644;48.858;9.184;2023-04-02T13:48:50;1.53;;;1.30;;
9218;SDS011;4644;48.858;9.184;2023-04-02T13:51:22;1.30;;;1.20;;
9218;SDS011;4644;48.858;9.184;2023-04-02T13:54:02;1.77;;;1.50;;
9218;SDS011;4644;48.858;9.184;2023-04-02T13:56:36;1.70;;;1.60;;
9218;SDS011;4644;48.858;9.184;2023-04-02T13:59:05;1.57;;;1.47;;
9218;SDS011;4644;48.858;9.184;2023-04-02T14:01:33;1.77;;;1.67;;
9218;SDS011;4644;48.858;9.184;2023-04-02T14:04:01;2.33;;;1.50;;
9218;SDS011;4644;48.858;9.184;2023-04-02T14:06:34;1.80;;;1.70;;
9218;SDS011;4644;48.858;9.184;2023-04-02T14:09:22;1.47;;;1.40;;
9218;SDS011;4644;48.858;9.184;2023-04-02T14:11:55;1.30;;;1.30;;
9218;SDS011;4644;48.858;9.184;2023-04-02T14:14:36;2.03;;;1.73;;
9218;SDS011;4644;48.858;9.184;2023-04-02T14:17:18;1.80;;;1.70;;
9218;SDS011;4644;48.858;9.184;2023-04-02T14:20:05;2.10;;;1.80;;
9218;SDS011;4644;48.858;9.184;2023-04-02T14:22:45;1.90;;;1.80;;
9218;SDS011;4644;48.858;9.184;2023-04-02T14:25:23;1.50;;;1.40;;
9218;SDS011;4644;48.858;9.184;2023-04-02T14:27:57;1.83;;;1.73;;
9218;SDS011;4644;48.858;9.184;2023-04-02T14:30:33;1.70;;;1.60;;
9218;SDS011;4644;48.858;9.184;2023-04-02T14:33:08;1.50;;;1.40;;
9218;SDS011;4644;48.858;9.184;2023-04-02T14:35:48;1.70;;;1.60;;
9218;SDS011;4644;48.858;9.184;2023-04-02T14:38:21;1.80;;;1.70;;
9218;SDS011;4644;48.858;9.184;2023-04-02T14:40:56;1.70;;;1.60;;
9218;SDS011;4644;48.858;9.184;2023-04-02T14:43:32;1.80;;;1.70;;
9218;SDS011;4644;48.858;9.184;2023-04-02T14:46:09;2.27;;;1.47;;
9218;SDS011;4644;48.858;9.184;2023-04-02T14:48:40;1.60;;;1.50;;
9218;SDS011;4644;48.858;9.184;2023-04-02T14:51:21;2.50;;;1.70;;
9218;SDS011;4644;48.858;9.184;2023-04-02T14:54:00;1.70;;;1.60;;
9218;SDS011;4644;48.858;9.184;2023-04-02T14:56:36;1.40;;;1.30;;
9218;SDS011;4644;48.858;9.184;2023-04-02T14:59:15;1.60;;;1.50;;
9218;SDS011;4644;48.858;9.184;2023-04-02T15:01:49;2.17;;;1.50;;
9218;SDS011;4644;48.858;9.184;2023-04-02T15:04:24;1.53;;;1.43;;
9218;SDS011;4644;48.858;9.184;2023-04-02T15:07:04;1.40;;;1.30;;
9218;SDS011;4644;48.858;9.184;2023-04-02T15:09:43;1.70;;;1.50;;
9218;SDS011;4644;48.858;9.184;2023-04-02T15:12:32;1.50;;;1.40;;
9218;SDS011;4644;48.858;9.184;2023-04-02T15:15:23;1.43;;;1.40;;
9218;SDS011;4644;48.858;9.184;2023-04-02T15:18:02;1.50;;;1.40;;
9218;SDS011;4644;48.858;9.184;2023-04-02T15:20:37;2.13;;;1.50;;
9218;SDS011;4644;48.858;9.184;2023-04-02T15:23:12;1.40;;;1.30;;
9218;SDS011;4644;48.858;9.184;2023-04-02T15:25:44;1.67;;;1.50;;
9218;SDS011;4644;48.858;9.184;2023-04-02T15:28:18;2.70;;;1.40;;
9218;SDS011;4644;48.858;9.184;2023-04-02T15:30:55;1.77;;;1.40;;
9218;SDS011;4644;48.858;9.184;2023-04-02T15:33:37;1.73;;;1.63;;
9218;SDS011;4644;48.858;9.184;2023-04-02T15:39:22;1.63;;;1.53;;
9218;SDS011;4644;48.858;9.184;2023-04-02T15:42:03;1.27;;;1.23;;
9218;SDS011;4644;48.858;9.184;2023-04-02T15:44:48;1.40;;;1.30;;
9218;SDS011;4644;48.858;9.184;2023-04-02T15:47:44;1.53;;;1.43;;
9218;SDS011;4644;48.858;9.184;2023-04-02T15:50:29;1.60;;;1.50;;
9218;SDS011;4644;48.858;9.184;2023-04-02T15:53:13;2.20;;;1.60;;
9218;SDS011;4644;48.858;9.184;2023-04-02T15:56:00;1.30;;;1.30;;
9218;SDS011;4644;48.858;9.184;2023-04-02T15:58:56;1.47;;;1.43;;
9218;SDS011;4644;48.858;9.184;2023-04-02T16:01:37;1.67;;;1.40;;
9218;SDS011;4644;48.858;9.184;2023-04-02T16:07:18;1.20;;;1.20;;
9218;SDS011;4644;48.858;9.184;2023-04-02T16:09:56;1.30;;;1.30;;
9218;SDS011;4644;48.858;9.184;2023-04-02T16:12:31;1.20;;;1.20;;
9218;SDS011;4644;48.858;9.184;2023-04-02T16:15:03;1.90;;;1.80;;
9218;SDS011;4644;48.858;9.184;2023-04-02T16:17:40;1.17;;;1.17;;
9218;SDS011;4644;48.858;9.184;2023-04-02T16:20:15;2.80;;;1.30;;
9218;SDS011;4644;48.858;9.184;2023-04-02T16:22:49;1.13;;;1.13;;
9218;SDS011;4644;48.858;9.184;2023-04-02T16:25:22;1.33;;;1.33;;
9218;SDS011;4644;48.858;9.184;2023-04-02T16:27:55;1.10;;;1.10;;
9218;SDS011;4644;48.858;9.184;2023-04-02T16:30:38;1.50;;;1.40;;
9218;SDS011;4644;48.858;9.184;2023-04-02T16:33:23;1.30;;;1.30;;
9218;SDS011;4644;48.858;9.184;2023-04-02T16:36:02;1.67;;;1.47;;